Grand Junction, CO (81505)

5:23 AM MST on February 26, 2017 (GMT -0700)
MUP738 | | Change Station

Elev 4523 ft 39.11 °N, 108.65 °W | Updated 4 hours ago

Clear
Clear
30.0 °F
Feels Like 30.0 °F
N
-
Wind Variable Wind from North

Today
High -- | Low -- °F
--% Chance of Precip.
Yesterday
High -- | Low -- °F
Precip. -- in
Pressure 30.00 in
Visibility 10.0 miles
Clouds Clear
Dew Point Not available.
Humidity Not available.
Rainfall 0.01 in
Snow Depth Not available.
6:50 AM 6:04 PM
Waning Crescent, 0% visible
METAR KGJT 261153Z AUTO 00000KT 10SM CLR M07/M12 A2994 RMK AO2 SLP158 T10721117 11011 21094 51003
Pressure 30.00 in
Visibility 10.0 miles
Clouds Clear
Dew Point Not available.
Humidity Not available.
Rainfall 0.01 in
Snow Depth Not available.
6:50 AM 6:04 PM
Waning Crescent, 0% visible
METAR KGJT 261153Z AUTO 00000KT 10SM CLR M07/M12 A2994 RMK AO2 SLP158 T10721117 11011 21094 51003

Get Your Daily Forecast Email!

Thanks for signing up!

Be on the lookout for a verification email in your inbox.

You'll start receiving the daily forecast at 8 AM.

×

10-Day Weather Forecast

Almanac

Astronomy

Feb. 26, 2017 Rise Set
Actual Time
Civil Twilight
Nautical Twilight
Astronomical Twilight
Moon
Length of Visible Light
Length of Day
Tomorrow will be .
, % of the Moon is Illuminated

Today's Extremes

State Highs State Lows

Community

WunderPhotos

Upload Photos

1,962,540 photos uploaded!

WunderBlog® & News

Nearby

Air Quality

  Air Quality AQ Index Pollutant
Not available.

Snow Depth

Station Depth Elevation

Earthquake Activity

City Distance Mag. Time & Date
Minimum magnitude displayed is 2.5.

Coastal Water Temperatures

Place Temperature

Stations

Nearby Weather Stations

Station Location Temp. Windchill Dew Point Humidity Wind Precip. Elev Updated Type
                   

Watches & Warnings

There are currently no watches in effect.